Airway Heights, WA

9:51 AM PDT on August 29, 2014 (GMT -0700)
Spokane International | Change Station
CLOSE
Current Station
Airport
Location: Spokane,
Elevation: 2365 ft
Nearby Weather Stations

Elev 2365 ft 47.62 °N, 117.53 °W | Updated 58 minutes ago

Scattered Clouds
Scattered Clouds
64 °F
Feels Like 64 °F
N
0
Wind Variable Wind from North

Today
High -- | Low -- °F
--% Chance of Precip.
Yesterday
High -- | Low -- °F
Precip. -- in
6:04 AM 7:36 PM
Waxing Crescent, 15% visible
Pressure 29.91 in
Visibility 10.0 miles
Clouds Few 5000 ft
Scattered Clouds 20000 ft
Dew Point 45 °F
Humidity 49%
Rainfall 0.00 in
Snow Depth Not available.
UV 2 out of 12
Pollen 7.30 out of 12
PM2.5 Good
Flu Activity Not available.
METAR KGEG 291553Z 00000KT 10SM FEW050 SCT200 18/07 A2995 RMK AO2 SLP128 FU FEW050 T01830067

More Conditions Fewer Conditions

Pressure 29.91 in
Visibility 10.0 miles
Clouds Few 5000 ft
Scattered Clouds 20000 ft
Dew Point 45 °F
Humidity 49%
Rainfall 0.00 in
Snow Depth Not available.
UV 2 out of 12
Pollen 7.30 out of 12
PM2.5 Good
Flu Activity Not available.
METAR KGEG 291553Z 00000KT 10SM FEW050 SCT200 18/07 A2995 RMK AO2 SLP128 FU FEW050 T01830067

More Conditions Fewer Conditions

10-Day Weather Forecast

Almanac

Astronomy

Aug. 29, 2014 Rise Set
Actual Time 6:04 AM PDT 7:36 PM PDT
Civil Twilight 5:32 AM PDT 8:08 PM PDT
Nautical Twilight 4:53 AM PDT 8:47 PM PDT
Astronomical Twilight 4:10 AM PDT 9:29 PM PDT
Moon 10:18 AM PDT 9:15 PM PDT
Length of Visible Light 14h 35m
Length of Day
13h 31m
Tomorrow will be 3m 17s shorter.
Waxing Crescent, 15% of the Moon is Illuminated
Today
Waxing Crescent
Sep 2
First Quarter
Sep 8
Full
Sep 15
Last Quarter
Sep 24
New

Today's Extremes

State Highs State Lows

Community

WunderPhotos

Upload Photos

1,748,285 photos uploaded!

Nearby

Air Quality

  Air Quality AQ Index Pollutant
Yesterday Good
PM10
Yesterday Good
OZONE
Current Good
PM2.5
Friday Good
PM10
Friday Good
OZONE

Snow Depth

Station Depth Elevation
Quartz Peak 1 in 4700 ft
Bunchgrass Meadow 0 in 5000 ft
Moses Mountain 1 in 5300 ft
Spruce Springs 0 in 5700 ft
Touchet 1 in 5530 ft

Earthquake Activity

City Distance Mag. Time & Date
No recent earthquake activity has been reported nearby.
Minimum magnitude displayed is 2.5.

Coastal Water Temperatures

Place Temperature
No Stations Reporting

Nearby Weather Stations